createdAt,value
2018-01-22T00:00:29.887Z,84.05
2018-01-22T00:01:29.875Z,83.76
2018-01-22T00:02:29.862Z,83.20
2018-01-22T00:03:29.905Z,83.39
2018-01-22T00:04:29.831Z,83.10
2018-01-22T00:05:29.821Z,83.76
2018-01-22T00:06:29.811Z,82.82
2018-01-22T00:07:29.799Z,82.91
2018-01-22T00:08:29.804Z,83.86
2018-01-22T00:09:29.773Z,83.76
2018-01-22T00:10:29.758Z,83.86
2018-01-22T00:11:29.744Z,83.29
2018-01-22T00:12:29.731Z,82.44
2018-01-22T00:13:29.718Z,83.29
2018-01-22T00:14:29.707Z,83.48
2018-01-22T00:15:29.694Z,82.34
2018-01-22T00:16:29.684Z,82.63
2018-01-22T00:17:29.667Z,82.53
2018-01-22T00:18:29.663Z,83.20
2018-01-22T00:19:29.644Z,83.20
2018-01-22T00:20:29.632Z,85.09
2018-01-22T00:21:29.619Z,85.75
2018-01-22T00:22:29.606Z,84.05
2018-01-22T00:23:29.598Z,84.14
2018-01-22T00:24:29.587Z,87.17
2018-01-22T00:25:29.568Z,87.93
2018-01-22T00:26:29.566Z,86.13
2018-01-22T00:27:29.548Z,88.40
2018-01-22T00:28:29.579Z,86.41
2018-01-22T00:29:29.518Z,85.19
2018-01-22T00:30:29.507Z,85.75
2018-01-22T00:31:29.487Z,85.57
2018-01-22T00:32:29.484Z,85.47
2018-01-22T00:33:29.469Z,86.41
2018-01-22T00:34:29.457Z,86.98
2018-01-22T00:35:29.462Z,87.65
2018-01-22T00:36:29.433Z,88.97
2018-01-22T00:37:29.431Z,90.58
2018-01-22T00:38:29.406Z,87.46
2018-01-22T00:39:29.403Z,85.28
2018-01-22T00:40:29.385Z,87.27
2018-01-22T00:41:29.371Z,86.60
2018-01-22T00:42:29.350Z,86.89
2018-01-22T00:43:29.345Z,86.89
2018-01-22T00:44:29.323Z,86.89
2018-01-22T00:45:29.373Z,85.47
2018-01-22T00:46:29.299Z,86.04
2018-01-22T00:47:29.285Z,86.79
2018-01-22T00:48:29.273Z,85.38
2018-01-22T00:49:29.266Z,85.09
2018-01-22T00:50:29.254Z,86.32
2018-01-22T00:51:29.240Z,85.66
2018-01-22T00:52:29.223Z,85.57
2018-01-22T00:53:29.210Z,86.60
2018-01-22T00:54:29.205Z,86.13
2018-01-22T00:55:29.189Z,84.61
2018-01-22T00:56:29.176Z,85.09
2018-01-22T00:57:29.159Z,84.81
2018-01-22T00:58:29.145Z,84.42
2018-01-22T00:59:29.138Z,84.61
2018-01-22T01:00:29.124Z,85.47
2018-01-22T01:01:29.109Z,85.66
2018-01-22T01:02:29.097Z,85.47
2018-01-22T01:03:29.089Z,85.57
2018-01-22T01:04:29.068Z,84.33
2018-01-22T01:05:29.062Z,84.90
2018-01-22T01:06:29.044Z,85.38
2018-01-22T01:07:29.031Z,86.04
2018-01-22T01:08:29.015Z,85.47
2018-01-22T01:09:29.004Z,85.00
2018-01-22T01:10:28.997Z,84.81
2018-01-22T01:11:28.981Z,84.81
2018-01-22T01:12:28.967Z,86.22
2018-01-22T01:13:28.957Z,87.36
2018-01-22T01:14:28.959Z,85.85
2018-01-22T01:15:28.945Z,85.47
2018-01-22T01:16:28.918Z,84.61
2018-01-22T01:17:28.901Z,85.47
2018-01-22T01:18:28.886Z,86.22
2018-01-22T01:19:28.879Z,85.28
2018-01-22T01:20:28.865Z,84.90
2018-01-22T01:21:28.852Z,85.75
2018-01-22T01:22:28.839Z,85.94
2018-01-22T01:23:28.821Z,87.55
2018-01-22T01:24:28.809Z,87.08
2018-01-22T01:25:28.804Z,86.79
2018-01-22T01:26:28.787Z,86.32
2018-01-22T01:27:28.773Z,86.32
2018-01-22T01:28:28.764Z,85.19
2018-01-22T01:29:28.749Z,84.81
2018-01-22T01:30:28.748Z,84.61
2018-01-22T01:31:28.722Z,83.86
2018-01-22T01:32:28.707Z,85.09
2018-01-22T01:33:28.697Z,83.95
2018-01-22T01:34:28.683Z,84.52
2018-01-22T01:35:28.672Z,84.23
2018-01-22T01:36:28.657Z,83.95
2018-01-22T01:37:28.641Z,84.14
2018-01-22T01:38:28.644Z,83.86
2018-01-22T01:39:28.643Z,83.95
2018-01-22T01:40:28.616Z,83.10
2018-01-22T01:41:28.593Z,82.72
2018-01-22T01:42:28.581Z,82.63
2018-01-22T01:43:28.568Z,82.15
2018-01-22T01:44:28.587Z,83.48
2018-01-22T01:45:28.576Z,82.53
2018-01-22T01:46:28.530Z,82.72
2018-01-22T01:47:28.516Z,83.39
2018-01-22T01:48:28.502Z,83.39
2018-01-22T01:49:28.496Z,83.48
2018-01-22T01:50:28.515Z,82.34
2018-01-22T01:51:28.462Z,83.48
2018-01-22T01:52:28.453Z,82.44
2018-01-22T01:53:28.438Z,82.25
2018-01-22T01:54:28.423Z,82.63
2018-01-22T01:55:28.440Z,83.48
2018-01-22T01:56:28.401Z,82.82
2018-01-22T01:57:28.389Z,82.53
2018-01-22T01:58:28.371Z,83.20
2018-01-22T01:59:28.359Z,81.68
2018-01-22T02:00:28.361Z,82.63
2018-01-22T02:01:28.336Z,81.96
2018-01-22T02:02:28.324Z,82.06
2018-01-22T02:03:28.310Z,82.72
2018-01-22T02:04:28.294Z,82.06
2018-01-22T02:05:28.297Z,81.02
2018-01-22T02:06:28.273Z,80.93
2018-01-22T02:07:28.258Z,80.93
2018-01-22T02:08:28.256Z,83.67
2018-01-22T02:09:28.234Z,81.30
2018-01-22T02:10:28.244Z,81.40
2018-01-22T02:11:28.207Z,82.82
2018-01-22T02:12:28.196Z,81.77
2018-01-22T02:13:28.184Z,81.77
2018-01-22T02:14:28.167Z,80.83
2018-01-22T02:15:28.161Z,81.59
2018-01-22T02:16:28.141Z,81.77
2018-01-22T02:17:28.139Z,81.21
2018-01-22T02:18:28.118Z,81.49
2018-01-22T02:19:28.102Z,80.74
2018-01-22T02:20:28.113Z,80.74
2018-01-22T02:21:28.088Z,80.36
2018-01-22T02:22:28.073Z,79.88
2018-01-22T02:23:28.052Z,80.64
2018-01-22T02:24:28.036Z,81.02
2018-01-22T02:25:28.026Z,81.49
2018-01-22T02:26:28.020Z,81.12
2018-01-22T02:27:27.998Z,82.72
2018-01-22T02:28:27.990Z,81.77
2018-01-22T02:29:27.975Z,81.59
2018-01-22T02:30:27.961Z,81.02
2018-01-22T02:31:27.944Z,80.64
2018-01-22T02:32:27.934Z,81.59
2018-01-22T02:33:27.923Z,80.74
2018-01-22T02:34:27.910Z,81.02
2018-01-22T02:35:27.898Z,82.15
2018-01-22T02:36:27.888Z,80.93
2018-01-22T02:37:27.875Z,81.21
2018-01-22T02:38:27.859Z,81.21
2018-01-22T02:39:27.847Z,81.02
2018-01-22T02:40:27.831Z,80.55
2018-01-22T02:41:27.819Z,80.07
2018-01-22T02:42:27.808Z,79.41
2018-01-22T02:43:27.794Z,80.36
2018-01-22T02:44:27.781Z,79.79
2018-01-22T02:45:27.829Z,79.32
2018-01-22T02:46:27.751Z,78.85
2018-01-22T02:47:27.742Z,78.27
2018-01-22T02:48:27.728Z,77.80
2018-01-22T02:49:27.718Z,77.99
2018-01-22T02:50:27.703Z,77.89
2018-01-22T02:51:27.699Z,77.14
2018-01-22T02:52:27.676Z,77.42
2018-01-22T02:53:27.668Z,76.76
2018-01-22T02:54:27.652Z,77.23
2018-01-22T02:55:27.640Z,77.14
2018-01-22T02:56:27.625Z,77.51
2018-01-22T02:57:27.611Z,76.57
2018-01-22T02:58:27.602Z,76.38
2018-01-22T02:59:27.585Z,77.04
2018-01-22T03:00:27.575Z,76.95
2018-01-22T03:01:27.562Z,77.42
2018-01-22T03:02:27.555Z,77.14
2018-01-22T03:03:27.533Z,77.04
2018-01-22T03:04:27.521Z,76.86
2018-01-22T03:05:27.510Z,77.14
2018-01-22T03:06:27.494Z,76.57
2018-01-22T03:07:27.484Z,76.67
2018-01-22T03:08:27.472Z,76.76
2018-01-22T03:09:27.466Z,76.57
2018-01-22T03:10:27.462Z,76.48
2018-01-22T03:11:27.440Z,76.76
2018-01-22T03:12:27.419Z,76.38
2018-01-22T03:13:27.405Z,76.48
2018-01-22T03:14:27.394Z,76.48
2018-01-22T03:15:27.379Z,76.67
2018-01-22T03:16:27.418Z,76.57
2018-01-22T03:17:27.356Z,76.38
2018-01-22T03:18:27.350Z,76.10
2018-01-22T03:19:27.327Z,75.91
2018-01-22T03:20:27.314Z,76.38
2018-01-22T03:21:27.301Z,76.10
2018-01-22T03:22:27.291Z,76.76
2018-01-22T03:23:27.276Z,76.10
2018-01-22T03:24:27.260Z,75.91
2018-01-22T03:25:27.251Z,76.29
2018-01-22T03:26:27.240Z,76.10
2018-01-22T03:27:27.223Z,76.10
2018-01-22T03:28:27.229Z,76.48
2018-01-22T03:29:27.199Z,76.76
2018-01-22T03:30:27.192Z,76.19
2018-01-22T03:31:27.170Z,76.38
2018-01-22T03:32:27.159Z,76.76
2018-01-22T03:33:27.149Z,75.81
2018-01-22T03:34:27.134Z,75.81
2018-01-22T03:35:27.118Z,76.57
2018-01-22T03:36:27.107Z,76.48
2018-01-22T03:37:27.091Z,76.19
2018-01-22T03:38:27.088Z,76.48
2018-01-22T03:39:27.087Z,76.38
2018-01-22T03:40:27.063Z,76.48
2018-01-22T03:41:27.045Z,76.38
2018-01-22T03:42:27.073Z,76.48
2018-01-22T03:43:27.016Z,76.29
2018-01-22T03:44:27.000Z,76.10
2018-01-22T03:45:27.033Z,76.57
2018-01-22T03:46:26.980Z,76.29
2018-01-22T03:47:26.967Z,76.10
2018-01-22T03:48:26.954Z,76.19
2018-01-22T03:49:26.939Z,76.19
2018-01-22T03:50:26.928Z,76.29
2018-01-22T03:51:26.913Z,76.19
2018-01-22T03:52:26.902Z,76.10
2018-01-22T03:53:26.885Z,76.19
2018-01-22T03:54:26.880Z,76.57
2018-01-22T03:55:26.859Z,76.48
2018-01-22T03:56:26.850Z,76.67
2018-01-22T03:57:26.833Z,76.38
2018-01-22T03:58:26.828Z,75.91
2018-01-22T03:59:26.811Z,76.19
2018-01-22T04:00:26.794Z,76.48
2018-01-22T04:01:26.784Z,76.38
2018-01-22T04:02:26.775Z,76.38
2018-01-22T04:03:26.758Z,76.48
2018-01-22T04:04:26.743Z,76.48
2018-01-22T04:05:26.729Z,76.19
2018-01-22T04:06:26.720Z,76.38
2018-01-22T04:07:26.710Z,76.10
2018-01-22T04:08:26.694Z,76.19
2018-01-22T04:09:26.682Z,76.29
2018-01-22T04:10:26.667Z,76.38
2018-01-22T04:11:26.654Z,76.67
2018-01-22T04:12:26.643Z,76.00
2018-01-22T04:13:26.631Z,75.91
2018-01-22T04:14:26.616Z,75.91
2018-01-22T04:15:26.603Z,76.19
2018-01-22T04:16:26.592Z,76.10
2018-01-22T04:17:26.590Z,75.72
2018-01-22T04:18:26.567Z,75.53
2018-01-22T04:19:26.553Z,75.72
2018-01-22T04:20:26.538Z,76.10
2018-01-22T04:21:26.527Z,75.81
2018-01-22T04:22:26.521Z,76.00
2018-01-22T04:23:26.500Z,75.72
2018-01-22T04:24:26.488Z,75.72
2018-01-22T04:25:26.476Z,75.62
2018-01-22T04:26:26.466Z,75.81
2018-01-22T04:27:26.474Z,75.72
2018-01-22T04:28:26.434Z,75.62
2018-01-22T04:29:26.428Z,75.81
2018-01-22T04:30:26.411Z,75.53
2018-01-22T04:31:26.398Z,75.72
2018-01-22T04:32:26.388Z,75.81
2018-01-22T04:33:26.373Z,75.81
2018-01-22T04:34:26.369Z,75.34
2018-01-22T04:35:26.347Z,75.91
2018-01-22T04:36:26.333Z,75.91
2018-01-22T04:37:26.324Z,76.19
2018-01-22T04:38:26.314Z,75.72
2018-01-22T04:39:26.297Z,75.91
2018-01-22T04:40:26.372Z,75.62
2018-01-22T04:41:26.370Z,76.38
2018-01-22T04:42:26.337Z,76.19
2018-01-22T04:43:26.324Z,76.29
2018-01-22T04:44:26.360Z,76.48
2018-01-22T04:45:26.253Z,76.57
2018-01-22T04:46:28.548Z,76.38
2018-01-22T04:47:28.996Z,76.29
2018-01-22T04:50:00.356Z,76.29
2018-01-22T04:51:00.342Z,76.38
2018-01-22T04:52:54.063Z,76.29
2018-01-22T04:53:54.125Z,76.95
2018-01-22T04:55:47.917Z,76.57
2018-01-22T04:56:47.689Z,77.14
2018-01-22T04:58:41.381Z,76.76
2018-01-22T04:59:41.333Z,76.76
2018-01-22T05:01:35.255Z,76.67
2018-01-22T05:02:34.956Z,76.76
2018-01-22T05:04:32.775Z,76.95
2018-01-22T05:05:29.792Z,76.95
2018-01-22T05:07:23.425Z,77.42
2018-01-22T05:08:23.372Z,77.04
2018-01-22T05:10:17.135Z,77.42
2018-01-22T05:11:17.715Z,77.33
2018-01-22T05:13:10.873Z,77.80
2018-01-22T05:14:10.745Z,77.70
2018-01-22T05:16:04.456Z,77.51
2018-01-22T05:17:04.280Z,77.61
2018-01-22T05:18:57.957Z,77.70
2018-01-22T05:20:02.672Z,77.99
2018-01-22T05:21:56.046Z,77.89
2018-01-22T05:22:54.269Z,77.89
2018-01-22T05:24:45.297Z,78.37
2018-01-22T05:25:45.368Z,78.08
2018-01-22T05:27:38.992Z,77.99
2018-01-22T05:28:38.952Z,78.08
2018-01-22T05:30:32.638Z,78.18
2018-01-22T05:31:32.614Z,78.18
2018-01-22T05:33:26.257Z,78.18
2018-01-22T05:34:26.225Z,78.27
2018-01-22T05:36:21.283Z,78.18
2018-01-22T05:37:21.234Z,78.37
2018-01-22T05:38:21.222Z,78.08
2018-01-22T05:39:21.210Z,77.99
2018-01-22T05:40:21.197Z,78.27
2018-01-22T05:41:21.187Z,78.18
2018-01-22T05:42:21.169Z,78.18
2018-01-22T05:43:21.155Z,78.08
2018-01-22T05:44:21.139Z,77.99
2018-01-22T05:45:21.140Z,78.08
2018-01-22T05:46:21.116Z,77.89
2018-01-22T05:47:21.119Z,78.27
2018-01-22T05:48:21.092Z,78.27
2018-01-22T05:49:21.169Z,78.27
2018-01-22T05:50:21.125Z,78.65
2018-01-22T05:51:21.056Z,78.65
2018-01-22T05:52:21.095Z,78.56
2018-01-22T05:53:21.189Z,78.56
2018-01-22T05:54:21.174Z,78.75
2018-01-22T05:55:23.827Z,78.65
2018-01-22T05:56:23.768Z,78.94
2018-01-22T05:57:23.837Z,79.03
2018-01-22T05:58:20.959Z,78.56
2018-01-22T05:59:20.964Z,78.85
2018-01-22T06:00:20.945Z,78.85
2018-01-22T06:01:20.921Z,79.13
2018-01-22T06:02:20.959Z,79.32
2018-01-22T06:03:20.898Z,79.13
2018-01-22T06:04:20.887Z,79.41
2018-01-22T06:05:20.874Z,79.03
2018-01-22T06:06:20.871Z,78.85
2018-01-22T06:07:20.851Z,78.75
2018-01-22T06:08:20.835Z,78.94
2018-01-22T06:09:20.831Z,79.60
2018-01-22T06:10:20.817Z,79.60
2018-01-22T06:11:20.804Z,79.60
2018-01-22T06:12:20.781Z,79.50
2018-01-22T06:13:20.779Z,79.60
2018-01-22T06:14:20.762Z,79.69
2018-01-22T06:15:20.793Z,79.50
2018-01-22T06:16:20.740Z,79.13
2018-01-22T06:17:20.721Z,79.50
2018-01-22T06:18:20.724Z,79.22
2018-01-22T06:19:20.719Z,79.32
2018-01-22T06:20:20.679Z,79.22
2018-01-22T06:21:20.674Z,79.60
2018-01-22T06:22:20.663Z,79.60
2018-01-22T06:23:20.644Z,79.50
2018-01-22T06:24:20.639Z,79.60
2018-01-22T06:25:20.662Z,79.88
2018-01-22T06:26:20.608Z,79.79
2018-01-22T06:27:20.591Z,79.69
2018-01-22T06:28:20.584Z,79.79
2018-01-22T06:29:20.588Z,79.60
2018-01-22T06:30:20.565Z,80.07
2018-01-22T06:31:20.588Z,80.07
2018-01-22T06:32:20.534Z,79.50
2018-01-22T06:33:20.520Z,80.26
2018-01-22T06:34:20.507Z,80.07
2018-01-22T06:35:20.496Z,80.07
2018-01-22T06:36:20.486Z,80.26
2018-01-22T06:37:20.469Z,80.26
2018-01-22T06:38:20.456Z,80.36
2018-01-22T06:39:20.444Z,80.07
2018-01-22T06:40:20.430Z,80.26
2018-01-22T06:41:20.418Z,79.88
2018-01-22T06:42:20.430Z,80.17
2018-01-22T06:43:20.394Z,80.07
2018-01-22T06:44:20.383Z,80.21
2018-01-22T06:45:20.368Z,79.98
2018-01-22T06:46:20.361Z,80.21
2018-01-22T06:47:20.346Z,79.98
2018-01-22T06:48:20.335Z,80.11
2018-01-22T06:49:20.325Z,80.87
2018-01-22T06:50:20.306Z,80.11
2018-01-22T06:51:20.292Z,80.58
2018-01-22T06:52:20.279Z,80.11
2018-01-22T06:53:20.267Z,80.45
2018-01-22T06:54:20.255Z,80.55
2018-01-22T06:55:20.242Z,80.02
2018-01-22T06:56:20.224Z,80.21
2018-01-22T06:57:20.219Z,80.30
2018-01-22T06:58:20.206Z,80.49
2018-01-22T06:59:20.188Z,80.40
2018-01-22T07:00:20.179Z,80.68
2018-01-22T07:01:20.170Z,80.49
2018-01-22T07:02:20.166Z,81.06
2018-01-22T07:03:20.151Z,80.77
2018-01-22T07:04:20.126Z,80.77
2018-01-22T07:05:20.120Z,80.87
2018-01-22T07:06:20.126Z,80.77
2018-01-22T07:07:20.094Z,81.06
2018-01-22T07:08:20.081Z,80.58
2018-01-22T07:09:20.069Z,80.77
2018-01-22T07:10:20.074Z,80.87
2018-01-22T07:11:20.045Z,80.30
2018-01-22T07:12:20.033Z,80.77
2018-01-22T07:13:20.015Z,80.87
2018-01-22T07:14:20.033Z,80.77
2018-01-22T07:15:19.997Z,80.96
2018-01-22T07:16:19.983Z,80.87
2018-01-22T07:17:19.968Z,80.96
2018-01-22T07:18:19.952Z,80.96
2018-01-22T07:19:19.949Z,81.72
2018-01-22T07:20:19.930Z,81.06
2018-01-22T07:21:19.923Z,81.44
2018-01-22T07:22:19.911Z,81.53
2018-01-22T07:23:19.896Z,81.44
2018-01-22T07:24:19.880Z,81.34
2018-01-22T07:25:19.871Z,81.44
2018-01-22T07:26:19.860Z,81.25
2018-01-22T07:27:19.848Z,81.15
2018-01-22T07:28:19.866Z,81.34
2018-01-22T07:29:19.821Z,81.44
2018-01-22T07:30:19.815Z,81.44
2018-01-22T07:31:19.797Z,81.63
2018-01-22T07:32:19.783Z,81.44
2018-01-22T07:33:19.773Z,81.34
2018-01-22T07:34:19.762Z,81.63
2018-01-22T07:35:19.753Z,81.53
2018-01-22T07:36:19.735Z,81.15
2018-01-22T07:37:19.719Z,81.15
2018-01-22T07:38:19.712Z,81.44
2018-01-22T07:39:19.694Z,81.53
2018-01-22T07:40:19.688Z,81.63
2018-01-22T07:41:19.670Z,81.92
2018-01-22T07:42:19.664Z,81.92
2018-01-22T07:43:19.644Z,81.25
2018-01-22T07:44:19.636Z,81.34
2018-01-22T07:45:19.616Z,81.34
2018-01-22T07:46:19.613Z,81.53
2018-01-22T07:47:19.597Z,81.92
2018-01-22T07:48:19.584Z,81.44
2018-01-22T07:49:19.579Z,81.34
2018-01-22T07:50:19.562Z,81.25
2018-01-22T07:51:19.549Z,81.53
2018-01-22T07:52:19.534Z,81.34
2018-01-22T07:53:19.534Z,81.92
2018-01-22T07:54:19.512Z,81.25
2018-01-22T07:55:19.497Z,81.25
2018-01-22T07:56:19.486Z,82.29
2018-01-22T07:57:19.483Z,81.44
2018-01-22T07:58:19.463Z,82.20
2018-01-22T07:59:19.454Z,81.15
2018-01-22T08:00:19.439Z,81.25
2018-01-22T08:01:19.424Z,82.10
2018-01-22T08:02:19.414Z,82.10
2018-01-22T08:03:19.400Z,82.10
2018-01-22T08:04:19.393Z,81.92
2018-01-22T08:05:19.376Z,81.82
2018-01-22T08:06:19.369Z,81.63
2018-01-22T08:07:19.354Z,82.01
2018-01-22T08:08:19.340Z,81.53
2018-01-22T08:09:19.329Z,81.44
2018-01-22T08:10:19.318Z,82.10
2018-01-22T08:11:19.303Z,82.01
2018-01-22T08:12:19.294Z,81.44
2018-01-22T08:13:19.303Z,81.44
2018-01-22T08:14:19.273Z,82.01
2018-01-22T08:15:19.253Z,81.44
2018-01-22T08:16:19.260Z,81.44
2018-01-22T08:17:19.233Z,81.82
2018-01-22T08:18:19.219Z,82.01
2018-01-22T08:19:19.206Z,81.25
2018-01-22T08:20:19.199Z,81.34
2018-01-22T08:21:19.183Z,81.29
2018-01-22T08:22:19.177Z,82.01
2018-01-22T08:23:19.160Z,82.10
2018-01-22T08:24:19.152Z,81.92
2018-01-22T08:25:19.135Z,81.82
2018-01-22T08:26:19.124Z,81.44
2018-01-22T08:27:19.108Z,82.05
2018-01-22T08:28:19.097Z,82.05
2018-01-22T08:29:19.132Z,82.05
2018-01-22T08:30:19.072Z,81.86
2018-01-22T08:31:19.069Z,82.05
2018-01-22T08:32:19.048Z,81.25
2018-01-22T08:33:19.035Z,81.76
2018-01-22T08:34:19.025Z,82.05
2018-01-22T08:35:19.015Z,81.48
2018-01-22T08:36:19.002Z,81.95
2018-01-22T08:37:18.993Z,81.48
2018-01-22T08:38:18.976Z,81.44
2018-01-22T08:39:18.962Z,82.05
2018-01-22T08:40:18.956Z,82.14
2018-01-22T08:41:18.944Z,81.57
2018-01-22T08:42:18.938Z,81.86
2018-01-22T08:43:18.916Z,82.05
2018-01-22T08:44:18.907Z,82.05
2018-01-22T08:45:18.899Z,81.76
2018-01-22T08:46:18.892Z,81.86
2018-01-22T08:47:18.870Z,81.67
2018-01-22T08:48:18.868Z,81.29
2018-01-22T08:49:18.853Z,82.14
2018-01-22T08:50:18.839Z,81.38
2018-01-22T08:51:18.823Z,81.86
2018-01-22T08:52:18.812Z,81.86
2018-01-22T08:53:18.804Z,81.67
2018-01-22T08:54:18.789Z,81.67
2018-01-22T08:55:18.773Z,81.38
2018-01-22T08:56:18.782Z,81.67
2018-01-22T08:57:18.757Z,81.38
2018-01-22T08:58:18.744Z,82.14
2018-01-22T08:59:18.725Z,81.86
2018-01-22T09:00:18.717Z,82.05
2018-01-22T09:01:18.705Z,81.86
2018-01-22T09:02:18.691Z,82.05
2018-01-22T09:03:18.675Z,81.76
2018-01-22T09:04:18.674Z,81.76
2018-01-22T09:05:18.679Z,81.38
2018-01-22T09:06:18.690Z,82.33
2018-01-22T09:07:18.633Z,81.38
2018-01-22T09:08:18.620Z,81.38
2018-01-22T09:09:18.629Z,81.86
2018-01-22T09:10:18.664Z,82.05
2018-01-22T09:11:18.695Z,82.05
2018-01-22T09:12:18.587Z,81.76
2018-01-22T09:13:18.565Z,81.86
2018-01-22T09:14:18.568Z,81.48
2018-01-22T09:15:18.709Z,81.95
2018-01-22T09:16:18.696Z,82.05
2018-01-22T09:17:18.556Z,82.05
2018-01-22T09:18:18.526Z,82.05
2018-01-22T09:19:18.494Z,81.38
2018-01-22T09:20:18.545Z,82.14
2018-01-22T09:21:18.469Z,82.14
2018-01-22T09:22:18.459Z,81.95
2018-01-22T09:23:18.450Z,82.14
2018-01-22T09:24:18.437Z,82.14
2018-01-22T09:25:18.423Z,81.38
2018-01-22T09:26:18.410Z,82.24
2018-01-22T09:27:18.400Z,81.67
2018-01-22T09:28:18.425Z,81.57
2018-01-22T09:29:18.381Z,81.76
2018-01-22T09:30:18.370Z,81.67
2018-01-22T09:31:18.352Z,81.95
2018-01-22T09:32:18.361Z,81.86
2018-01-22T09:33:18.342Z,81.29
2018-01-22T09:34:18.323Z,81.76
2018-01-22T09:35:18.309Z,81.48
2018-01-22T09:36:18.312Z,81.71
2018-01-22T09:37:18.284Z,81.67
2018-01-22T09:38:18.279Z,81.52
2018-01-22T09:39:18.266Z,81.76
2018-01-22T09:40:18.246Z,81.57
2018-01-22T09:41:18.244Z,81.38
2018-01-22T09:42:18.235Z,81.38
2018-01-22T09:43:18.219Z,81.01
2018-01-22T09:44:18.205Z,80.95
2018-01-22T09:45:18.196Z,81.05
2018-01-22T09:46:18.182Z,80.76
2018-01-22T09:47:18.172Z,80.86
2018-01-22T09:48:18.175Z,81.05
2018-01-22T09:49:18.202Z,80.95
2018-01-22T09:50:18.140Z,81.14
2018-01-22T09:51:18.121Z,80.95
2018-01-22T09:52:18.132Z,81.14
2018-01-22T09:53:18.104Z,80.67
2018-01-22T09:54:18.124Z,80.48
2018-01-22T09:55:18.130Z,80.48
2018-01-22T09:56:18.072Z,80.67
2018-01-22T09:57:18.063Z,80.86
2018-01-22T09:58:18.079Z,80.00
2018-01-22T09:59:18.055Z,80.48
2018-01-22T10:00:18.022Z,80.29
2018-01-22T10:01:18.019Z,80.38
2018-01-22T10:02:18.008Z,80.67
2018-01-22T10:03:17.996Z,80.57
2018-01-22T10:04:17.989Z,80.10
2018-01-22T10:05:17.974Z,80.38
2018-01-22T10:06:18.004Z,80.19
2018-01-22T10:07:17.945Z,80.48
2018-01-22T10:08:17.944Z,80.48
2018-01-22T10:09:17.927Z,80.43
2018-01-22T10:10:17.913Z,80.52
2018-01-22T10:11:17.905Z,80.48
2018-01-22T10:12:17.897Z,80.33
2018-01-22T10:13:17.886Z,80.33
2018-01-22T10:14:17.873Z,80.10
2018-01-22T10:15:17.885Z,80.33
2018-01-22T10:16:17.857Z,80.33
2018-01-22T10:17:17.859Z,80.62
2018-01-22T10:18:17.877Z,80.52
2018-01-22T10:19:17.824Z,80.43
2018-01-22T10:20:17.812Z,80.04
2018-01-22T10:21:17.832Z,80.14
2018-01-22T10:22:17.815Z,80.52
2018-01-22T10:23:17.776Z,79.95
2018-01-22T10:24:17.779Z,79.76
2018-01-22T10:25:17.763Z,79.66
2018-01-22T10:26:17.808Z,79.76
2018-01-22T10:27:17.755Z,79.95
2018-01-22T10:28:17.731Z,79.95
2018-01-22T10:29:17.711Z,79.85
2018-01-22T10:30:17.717Z,79.95
2018-01-22T10:31:17.690Z,79.85
2018-01-22T10:32:17.679Z,79.76
2018-01-22T10:33:17.663Z,79.57
2018-01-22T10:34:17.662Z,79.57
2018-01-22T10:35:17.643Z,79.85
2018-01-22T10:36:17.631Z,79.95
2018-01-22T10:37:17.683Z,79.95
2018-01-22T10:38:17.610Z,79.85
2018-01-22T10:39:17.606Z,79.66
2018-01-22T10:40:17.603Z,79.76
2018-01-22T10:41:17.586Z,79.85
2018-01-22T10:42:17.683Z,79.95
2018-01-22T10:43:17.557Z,79.76
2018-01-22T10:44:17.548Z,79.95
2018-01-22T10:45:17.538Z,80.04
2018-01-22T10:46:17.533Z,80.52
2018-01-22T10:47:17.532Z,80.14
2018-01-22T10:48:17.506Z,80.04
2018-01-22T10:49:17.539Z,79.76
2018-01-22T10:50:17.483Z,79.95
2018-01-22T10:51:17.475Z,79.76
2018-01-22T10:52:17.523Z,79.85
2018-01-22T10:53:17.467Z,79.76
2018-01-22T10:54:17.447Z,79.95
2018-01-22T10:55:17.425Z,79.85
2018-01-22T10:56:17.485Z,80.14
2018-01-22T10:57:17.420Z,79.95
2018-01-22T10:58:17.395Z,79.76
2018-01-22T10:59:17.385Z,79.85
2018-01-22T11:00:17.473Z,79.76
2018-01-22T11:01:17.376Z,79.85
2018-01-22T11:02:17.353Z,79.99
2018-01-22T11:03:17.399Z,79.76
2018-01-22T11:04:17.367Z,79.71
2018-01-22T11:05:17.383Z,79.42
2018-01-22T11:06:17.351Z,79.90
2018-01-22T11:07:17.299Z,79.71
2018-01-22T11:08:17.392Z,79.61
2018-01-22T11:09:17.350Z,79.61
2018-01-22T11:10:17.320Z,79.90
2018-01-22T11:11:17.255Z,79.80
2018-01-22T11:12:17.316Z,79.90
2018-01-22T11:13:17.240Z,79.61
2018-01-22T11:14:17.224Z,79.90
2018-01-22T11:15:17.212Z,79.80
2018-01-22T11:16:17.202Z,79.90
2018-01-22T11:17:17.194Z,79.90
2018-01-22T11:18:17.193Z,79.80
2018-01-22T11:19:17.167Z,79.52
2018-01-22T11:20:17.156Z,79.71
2018-01-22T11:21:17.213Z,79.99
2018-01-22T11:22:17.140Z,79.99
2018-01-22T11:23:17.214Z,79.52
2018-01-22T11:24:17.253Z,79.90
2018-01-22T11:25:17.122Z,79.42
2018-01-22T11:26:17.119Z,79.42
2018-01-22T11:27:17.085Z,79.52
2018-01-22T11:28:17.074Z,79.14
2018-01-22T11:29:17.078Z,79.42
2018-01-22T11:30:17.072Z,79.71
2018-01-22T11:31:17.042Z,79.52
2018-01-22T11:32:17.033Z,79.61
2018-01-22T11:33:17.021Z,79.42
2018-01-22T11:34:17.009Z,79.52
2018-01-22T11:35:17.005Z,79.52
2018-01-22T11:36:16.988Z,79.71
2018-01-22T11:37:16.985Z,79.71
2018-01-22T11:38:16.980Z,79.61
2018-01-22T11:39:16.958Z,79.14
2018-01-22T11:40:16.949Z,79.42
2018-01-22T11:41:16.936Z,79.23
2018-01-22T11:42:16.922Z,79.33
2018-01-22T11:43:16.927Z,79.23
2018-01-22T11:44:16.915Z,79.42
2018-01-22T11:45:16.892Z,79.04
2018-01-22T11:46:16.885Z,79.14
2018-01-22T11:47:16.868Z,78.95
2018-01-22T11:48:16.858Z,78.47
2018-01-22T11:49:16.857Z,78.75
2018-01-22T11:50:16.841Z,78.47
2018-01-22T11:51:16.829Z,78.66
2018-01-22T11:52:16.839Z,78.56
2018-01-22T11:53:16.853Z,78.47
2018-01-22T11:54:16.819Z,78.38
2018-01-22T11:55:16.782Z,78.95
2018-01-22T11:56:16.778Z,78.95
2018-01-22T11:57:16.834Z,78.95
2018-01-22T11:58:16.778Z,78.95
2018-01-22T11:59:16.816Z,78.56
2018-01-22T12:00:16.771Z,78.66
2018-01-22T12:01:16.749Z,78.85
2018-01-22T12:02:16.718Z,79.14
2018-01-22T12:03:16.705Z,78.95
2018-01-22T12:04:16.732Z,78.47
2018-01-22T12:05:16.766Z,78.28
2018-01-22T12:06:16.765Z,78.38
2018-01-22T12:07:16.726Z,78.47
2018-01-22T12:08:16.652Z,78.38
2018-01-22T12:09:16.638Z,78.56
2018-01-22T12:10:16.630Z,78.75
2018-01-22T12:11:16.726Z,78.56
2018-01-22T12:12:16.607Z,78.66
2018-01-22T12:13:16.597Z,78.75
2018-01-22T12:14:16.604Z,78.75
2018-01-22T12:15:16.575Z,78.38
2018-01-22T12:16:16.612Z,78.38
2018-01-22T12:17:16.563Z,78.32
2018-01-22T12:18:16.557Z,78.09
2018-01-22T12:19:16.546Z,77.90
2018-01-22T12:20:16.531Z,78.09
2018-01-22T12:21:16.516Z,78.03
2018-01-22T12:22:16.594Z,77.90
2018-01-22T12:23:16.491Z,77.81
2018-01-22T12:24:16.479Z,77.94
2018-01-22T12:25:16.484Z,77.14
2018-01-22T12:26:16.485Z,77.09
2018-01-22T12:27:16.458Z,77.18
2018-01-22T12:28:16.446Z,77.18
2018-01-22T12:29:16.434Z,77.09
2018-01-22T12:30:16.416Z,77.18
2018-01-22T12:31:16.410Z,76.71
2018-01-22T12:32:16.422Z,76.71
2018-01-22T12:33:16.392Z,76.52
2018-01-22T12:34:16.383Z,75.62
2018-01-22T12:35:16.371Z,76.10
2018-01-22T12:36:16.355Z,75.67
2018-01-22T12:37:16.354Z,75.76
2018-01-22T12:38:16.338Z,75.95
2018-01-22T12:39:16.327Z,75.57
2018-01-22T12:40:16.321Z,75.19
2018-01-22T12:41:16.307Z,75.15
2018-01-22T12:42:16.294Z,75.28
2018-01-22T12:43:16.287Z,75.19
2018-01-22T12:44:16.283Z,74.71
2018-01-22T12:45:16.272Z,74.62
2018-01-22T12:46:16.259Z,74.62
2018-01-22T12:47:16.245Z,74.43
2018-01-22T12:48:16.232Z,74.33
2018-01-22T12:49:16.228Z,73.96
2018-01-22T12:50:16.224Z,74.15
2018-01-22T12:51:16.211Z,73.38
2018-01-22T12:52:16.199Z,73.10
2018-01-22T12:53:16.192Z,73.10
2018-01-22T12:54:16.176Z,72.81
2018-01-22T12:55:16.171Z,72.91
2018-01-22T12:56:16.166Z,72.59
2018-01-22T12:57:16.151Z,72.44
2018-01-22T12:58:16.139Z,72.53
2018-01-22T12:59:16.133Z,71.96
2018-01-22T13:00:16.129Z,72.53
2018-01-22T13:01:16.124Z,71.92
2018-01-22T13:02:16.106Z,71.58
2018-01-22T13:03:16.100Z,71.58
2018-01-22T13:04:16.083Z,71.48
2018-01-22T13:05:16.098Z,71.77
2018-01-22T13:06:16.082Z,71.77
2018-01-22T13:07:16.058Z,71.77
2018-01-22T13:08:16.039Z,71.67